Boxborough, MA (01719)

10:12 PM EDT on April 20, 2015 (GMT -0400)
Pine Hill | | Change Station
CLOSE
Current Station
Personal Weather Station
Location: Boxborough, MA
Elevation: 295 ft
Nearby Weather Stations

Elev 295 ft 42.48 °N, 71.50 °W | Updated 18 seconds ago

Mostly Cloudy
Mostly Cloudy
47.3 °F
Feels Like 47 °F
N
0.0
Wind Variable Wind from ESE
Gusts 1.0 mph

Today
High -- | Low -- °F
--% Chance of Precip.
Yesterday
High -- | Low -- °F
Precip. -- in
5:57 AM 7:33 PM
Waxing Crescent, 7% visible
Pressure 29.81 in
Visibility 5.0 miles
Clouds Overcast 400 ft
Windchill 47 °F
Dew Point 47 °F
Humidity 98%
Rainfall 0.38 in
Snow Depth Not available.
UV 0 out of 12
Pollen 2.80 out of 12
Air Quality Not available.
Flu Activity Widespread
METAR KBED 210156Z 05005KT 5SM -RA BR OVC004 09/09 A2977 RMK AO2 SLP094 P0010 T00940094

More Conditions Fewer Conditions

Pressure 29.81 in
Visibility 5.0 miles
Clouds Overcast 400 ft
Windchill 47 °F
Dew Point 47 °F
Humidity 98%
Rainfall 0.38 in
Snow Depth Not available.
UV 0 out of 12
Pollen 2.80 out of 12
Air Quality Not available.
Flu Activity Widespread
METAR KBED 210156Z 05005KT 5SM -RA BR OVC004 09/09 A2977 RMK AO2 SLP094 P0010 T00940094

More Conditions Fewer Conditions

10-Day Weather Forecast

Almanac

Astronomy

Apr. 20, 2015 Rise Set
Actual Time
Civil Twilight
Nautical Twilight
Astronomical Twilight
Moon
Length of Visible Light
Length of Day
Tomorrow will be .
, % of the Moon is Illuminated

Today's Extremes

State Highs State Lows

Community

WunderPhotos

Upload Photos

1,815,278 photos uploaded!

WunderBlogs® & News

Nearby

Air Quality

  Air Quality AQ Index Pollutant
Not available.

Snow Depth

Station Depth Elevation

Earthquake Activity

City Distance Mag. Time & Date
Minimum magnitude displayed is 2.5.

Coastal Water Temperatures

Place Temperature

Stations

Nearby Weather Stations

Station Location Temp. Windchill Dew Point Humidity Wind Precip. Elev Updated Type